Time;durP1;ratioP1;P1;durP2;ratioP2;P2;SDS_P1;SDS_P2;PMS_P1;PMS_P2;Temp;Humidity;BMP_temperature;BMP_pressure;BME280_temperature;BME280_humidity;BME280_pressure;Samples;Min_cycle;Max_cycle;Signal;HPM_P1;HPM_P2
2021/06/03 00:24:15;;;;;;;;;;;;;;;;;;;;;
2021/06/03 00:39:02;;;;;;;6.93;6.20;;;;;;;;;;6149618;23;20386;-81
2021/06/03 00:41:46;;;;;;;;;;;;;;;;;;;;;
2021/06/03 00:54:55;;;;;;;7.63;7.03;;;;;;;;;;6212718;23;20470;-83
2021/06/03 00:57:50;;;;;;;9.17;8.23;;;;;;;;;;6238603;23;20681;-82
2021/06/03 01:04:25;;;;;;;8.23;7.57;;;;;;;;;;6145000;23;20489;-81
2021/06/03 01:06:54;;;;;;;12.90;8.37;;;;;;;;;;6119341;23;20918;-84
2021/06/03 01:09:35;;;;;;;8.10;7.30;;;;;;;;;;6227568;23;20382;-82
2021/06/03 01:12:01;;;;;;;8.40;7.60;;;;;;;;;;6228336;23;20458;-84
2021/06/03 01:14:33;;;;;;;6.63;6.13;;;;;;;;;;6227010;23;20478;-84
2021/06/03 01:16:59;;;;;;;8.00;6.70;;;;;;;;;;6214941;23;20395;-85
2021/06/03 01:19:37;;;;;;;7.17;6.60;;;;;;;;;;6226436;23;20372;-84
2021/06/03 01:22:07;;;;;;;7.80;7.00;;;;;;;;;;6226089;23;20410;-84
2021/06/03 01:24:38;;;;;;;7.33;6.70;;;;;;;;;;6176143;23;20498;-84
2021/06/03 01:27:11;;;;;;;7.57;6.90;;;;;;;;;;6179759;23;20433;-83
2021/06/03 01:29:49;;;;;;;11.10;7.80;;;;;;;;;;6231045;23;20794;-83
2021/06/03 01:32:17;;;;;;;7.20;6.60;;;;;;;;;;6177507;23;20381;-84
2021/06/03 01:34:44;;;;;;;7.80;7.20;;;;;;;;;;6182762;23;20931;-84
2021/06/03 01:37:12;;;;;;;7.53;6.93;;;;;;;;;;6174958;23;20398;-84
2021/06/03 01:39:45;;;;;;;8.13;6.97;;;;;;;;;;6225441;23;20418;-85
2021/06/03 01:42:18;;;;;;;6.87;6.23;;;;;;;;;;6200288;23;20378;-84
2021/06/03 01:44:51;;;;;;;8.20;7.47;;;;;;;;;;6197952;23;20382;-85
2021/06/03 01:47:17;;;;;;;8.37;7.77;;;;;;;;;;6200901;23;20389;-84
2021/06/03 01:49:45;;;;;;;7.87;7.27;;;;;;;;;;6199218;23;20377;-84
2021/06/03 01:52:11;;;;;;;8.13;7.53;;;;;;;;;;6175103;23;20388;-84
2021/06/03 01:54:40;;;;;;;7.27;6.40;;;;;;;;;;6199408;23;20422;-83
2021/06/03 01:57:12;;;;;;;7.63;7.03;;;;;;;;;;6203177;23;20431;-83
2021/06/03 02:00:01;;;;;;;8.17;7.57;;;;;;;;;;6199941;23;20373;-84
2021/06/03 02:02:38;;;;;;;8.77;8.07;;;;;;;;;;6226842;23;20401;-84
2021/06/03 02:05:05;;;;;;;8.20;7.30;;;;;;;;;;6199376;23;20435;-83
2021/06/03 02:07:32;;;;;;;8.10;7.30;;;;;;;;;;6174204;23;20418;-84
2021/06/03 02:10:04;;;;;;;8.50;7.70;;;;;;;;;;6200025;23;20445;-84
2021/06/03 02:12:32;;;;;;;8.27;7.57;;;;;;;;;;6226667;23;20458;-83
2021/06/03 02:15:10;;;;;;;8.00;7.40;;;;;;;;;;6199236;23;20930;-84
2021/06/03 02:17:43;;;;;;;7.83;7.27;;;;;;;;;;6216625;23;20385;-83
2021/06/03 02:20:12;;;;;;;8.50;7.83;;;;;;;;;;6215096;23;20379;-80
2021/06/03 02:22:42;;;;;;;7.83;7.10;;;;;;;;;;6215907;23;20390;-83
2021/06/03 02:25:08;;;;;;;14.57;7.07;;;;;;;;;;6242685;23;20642;-83
2021/06/03 02:27:36;;;;;;;8.33;7.60;;;;;;;;;;6190151;23;20399;-84
2021/06/03 02:30:05;;;;;;;7.30;6.60;;;;;;;;;;6206250;23;20374;-85
2021/06/03 02:32:43;;;;;;;7.90;7.30;;;;;;;;;;6198822;23;20378;-84
2021/06/03 02:35:13;;;;;;;8.53;7.83;;;;;;;;;;6198414;23;20413;-84
2021/06/03 02:37:46;;;;;;;7.83;7.20;;;;;;;;;;6197823;23;20420;-84
2021/06/03 02:40:23;;;;;;;8.73;8.03;;;;;;;;;;6198682;23;20375;-84
2021/06/03 02:42:50;;;;;;;8.83;8.03;;;;;;;;;;6199014;23;20357;-84
2021/06/03 02:45:20;;;;;;;7.47;6.87;;;;;;;;;;6198807;23;20501;-84
2021/06/03 02:47:47;;;;;;;8.17;7.47;;;;;;;;;;6224435;23;20454;-84
2021/06/03 02:50:16;;;;;;;7.27;6.73;;;;;;;;;;6199307;23;20442;-84
2021/06/03 02:52:47;;;;;;;8.13;7.53;;;;;;;;;;6226791;23;20371;-84
2021/06/03 02:55:22;;;;;;;9.20;8.50;;;;;;;;;;6200025;23;20467;-85
2021/06/03 02:57:54;;;;;;;9.10;8.23;;;;;;;;;;6191506;23;20397;-80
2021/06/03 03:00:22;;;;;;;8.50;7.87;;;;;;;;;;6215069;23;20376;-81
2021/06/03 03:03:14;;;;;;;11.67;7.47;;;;;;;;;;6233547;23;20712;-81
2021/06/03 03:05:46;;;;;;;8.97;8.17;;;;;;;;;;6182959;23;20426;-83
2021/06/03 03:08:19;;;;;;;8.93;8.13;;;;;;;;;;6183472;23;20413;-83
2021/06/03 03:10:48;;;;;;;7.80;7.20;;;;;;;;;;6205976;23;20387;-85
2021/06/03 03:13:17;;;;;;;9.40;8.27;;;;;;;;;;6178485;23;20382;-84
2021/06/03 03:15:49;;;;;;;8.80;8.00;;;;;;;;;;6226807;23;20409;-83
2021/06/03 03:18:23;;;;;;;9.77;8.97;;;;;;;;;;6197721;23;20350;-83
2021/06/03 03:20:50;;;;;;;8.40;7.60;;;;;;;;;;6194381;23;20741;-84
2021/06/03 03:23:22;;;;;;;8.37;7.43;;;;;;;;;;6172256;23;20370;-84
2021/06/03 03:25:54;;;;;;;10.60;7.90;;;;;;;;;;6198973;23;20384;-83
2021/06/03 03:28:21;;;;;;;8.47;7.77;;;;;;;;;;6197938;23;20409;-84
2021/06/03 03:30:48;;;;;;;8.40;7.50;;;;;;;;;;6226022;23;20804;-83
2021/06/03 03:33:21;;;;;;;8.40;7.60;;;;;;;;;;6197703;23;20377;-84
2021/06/03 03:35:51;;;;;;;7.77;7.27;;;;;;;;;;6173835;23;20418;-84
2021/06/03 03:38:47;;;;;;;8.27;7.63;;;;;;;;;;6198838;23;20451;-84
2021/06/03 03:41:21;;;;;;;8.97;8.13;;;;;;;;;;6177565;23;20385;-84
2021/06/03 03:43:48;;;;;;;9.07;8.37;;;;;;;;;;6201025;23;20785;-84
2021/06/03 03:46:18;;;;;;;8.80;8.00;;;;;;;;;;6198744;23;20379;-84
2021/06/03 03:48:49;;;;;;;7.70;7.00;;;;;;;;;;6197930;23;20375;-85
2021/06/03 03:51:22;;;;;;;7.90;7.20;;;;;;;;;;6176044;23;20366;-84
2021/06/03 03:53:49;;;;;;;8.80;7.57;;;;;;;;;;6174578;23;20456;-84
2021/06/03 03:56:27;;;;;;;9.03;8.13;;;;;;;;;;6197263;23;20409;-84
2021/06/03 03:58:58;;;;;;;7.93;7.37;;;;;;;;;;6223652;23;20369;-85
2021/06/03 04:01:29;;;;;;;7.77;7.20;;;;;;;;;;6196626;23;20378;-84
2021/06/03 04:03:56;;;;;;;8.60;7.90;;;;;;;;;;6211378;23;20989;-84
2021/06/03 04:06:37;;;;;;;7.50;6.87;;;;;;;;;;6196650;23;20424;-84
2021/06/03 04:09:07;;;;;;;8.67;7.87;;;;;;;;;;6196721;23;20409;-84
2021/06/03 04:11:37;;;;;;;8.20;7.40;;;;;;;;;;6196840;23;20399;-84
2021/06/03 04:14:14;;;;;;;7.67;7.00;;;;;;;;;;6224439;23;20439;-84
2021/06/03 04:16:43;;;;;;;8.90;6.83;;;;;;;;;;6224423;23;20412;-84
2021/06/03 04:19:13;;;;;;;8.33;7.73;;;;;;;;;;6223852;23;20366;-85
2021/06/03 04:21:43;;;;;;;7.93;7.10;;;;;;;;;;6198038;23;20392;-83
2021/06/03 04:24:24;;;;;;;7.83;6.60;;;;;;;;;;6225259;23;20366;-85
2021/06/03 04:26:57;;;;;;;8.73;7.23;;;;;;;;;;6197165;23;20398;-83
2021/06/03 04:29:26;;;;;;;8.70;7.23;;;;;;;;;;6223752;23;20374;-83
2021/06/03 04:31:52;;;;;;;7.37;6.77;;;;;;;;;;6224449;23;20377;-83
2021/06/03 04:34:29;;;;;;;6.23;5.73;;;;;;;;;;6224644;23;20456;-85
2021/06/03 04:37:27;;;;;;;6.77;6.33;;;;;;;;;;6225007;23;20415;-84
2021/06/03 04:40:09;;;;;;;7.87;7.17;;;;;;;;;;6225212;23;20405;-84
2021/06/03 04:42:40;;;;;;;7.80;7.00;;;;;;;;;;6189367;23;20386;-85
2021/06/03 04:45:20;;;;;;;10.40;7.50;;;;;;;;;;6199662;23;20840;-83
2021/06/03 04:47:55;;;;;;;8.97;8.17;;;;;;;;;;6197431;23;20469;-84
2021/06/03 04:50:22;;;;;;;7.47;6.37;;;;;;;;;;6198972;23;20370;-83
2021/06/03 04:56:13;;;;;;;7.93;7.13;;;;;;;;;;6216172;23;20400;-86
2021/06/03 04:59:12;;;;;;;8.03;7.43;;;;;;;;;;6171891;23;20378;-84
2021/06/03 05:01:59;;;;;;;6.80;6.30;;;;;;;;;;6199405;23;20389;-83
2021/06/03 05:04:27;;;;;;;9.47;8.40;;;;;;;;;;6224421;23;20398;-84
2021/06/03 05:07:13;;;;;;;;;;;;;;;;;;;;;
2021/06/03 05:09:46;;;;;;;8.03;7.20;;;;;;;;;;6198697;23;20385;-84
2021/06/03 05:12:21;;;;;;;11.03;9.83;;;;;;;;;;6175492;23;20377;-84
2021/06/03 05:14:50;;;;;;;8.37;6.43;;;;;;;;;;6174868;23;20414;-85
2021/06/03 05:17:25;;;;;;;7.47;6.87;;;;;;;;;;6173947;23;20413;-85
2021/06/03 05:20:15;;;;;;;11.73;7.80;;;;;;;;;;6200685;23;20381;-85
2021/06/03 05:23:07;;;;;;;9.33;7.80;;;;;;;;;;6209850;23;20338;-85
2021/06/03 05:25:54;;;;;;;9.20;6.57;;;;;;;;;;6198849;23;20378;-84
2021/06/03 05:28:49;;;;;;;;;;;;;;;;;;;;;
2021/06/03 05:31:40;;;;;;;8.53;6.43;;;;;;;;;;6223238;23;20422;-84
2021/06/03 05:34:10;;;;;;;8.20;7.33;;;;;;;;;;6198054;23;20420;-85
2021/06/03 05:36:39;;;;;;;11.10;7.50;;;;;;;;;;6200070;23;20388;-85
2021/06/03 05:39:09;;;;;;;6.80;6.00;;;;;;;;;;6172748;23;20374;-86
2021/06/03 05:42:32;;;;;;;10.67;7.30;;;;;;;;;;6210465;23;20397;-88
2021/06/03 05:45:48;;;;;;;6.97;6.27;;;;;;;;;;6206487;23;20423;-86
2021/06/03 05:48:33;;;;;;;10.77;6.63;;;;;;;;;;6203046;23;20421;-84
2021/06/03 05:51:08;;;;;;;6.23;5.63;;;;;;;;;;6181295;23;20393;-83
2021/06/03 05:53:43;;;;;;;84.67;76.37;;;;;;;;;;6209577;23;20373;-83
2021/06/03 05:56:27;;;;;;;26.70;24.37;;;;;;;;;;6210769;23;20438;-83
2021/06/03 06:08:24;;;;;;;6.27;5.67;;;;;;;;;;6078784;23;20900;-84
2021/06/03 06:14:54;;;;;;;13.03;7.13;;;;;;;;;;6052360;23;20441;-83
2021/06/03 06:18:06;;;;;;;8.30;7.37;;;;;;;;;;6078270;23;20809;-86
2021/06/03 06:20:59;;;;;;;7.30;6.47;;;;;;;;;;6035795;23;20474;-85
2021/06/03 06:23:29;;;;;;;17.60;15.90;;;;;;;;;;6054266;23;20483;-85
2021/06/03 06:25:58;;;;;;;10.13;8.37;;;;;;;;;;6078100;23;20386;-86
2021/06/03 06:28:28;;;;;;;6.27;5.70;;;;;;;;;;6224057;23;20454;-86
2021/06/03 06:31:02;;;;;;;6.80;5.80;;;;;;;;;;6228343;23;20874;-85
2021/06/03 06:33:55;;;;;;;;;;;;;;;;;;;;;
2021/06/03 06:36:38;;;;;;;7.93;5.30;;;;;;;;;;6228970;23;20485;-83
2021/06/03 06:39:19;;;;;;;6.50;5.90;;;;;;;;;;6204527;23;20378;-83
2021/06/03 06:41:55;;;;;;;5.87;5.13;;;;;;;;;;6202667;23;20785;-85
2021/06/03 06:44:47;;;;;;;6.10;5.70;;;;;;;;;;6201730;23;20404;-86
2021/06/03 06:47:19;;;;;;;7.57;6.87;;;;;;;;;;6201662;23;20429;-85
2021/06/03 06:53:59;;;;;;;6.07;5.43;;;;;;;;;;6192971;23;20518;-86
2021/06/03 06:57:00;;;;;;;6.60;6.00;;;;;;;;;;6203220;22;20954;-85
2021/06/03 06:59:39;;;;;;;8.83;5.27;;;;;;;;;;6207815;23;20978;-87
2021/06/03 07:02:24;;;;;;;6.80;6.00;;;;;;;;;;6213926;23;20403;-85
2021/06/03 07:05:17;;;;;;;6.67;6.00;;;;;;;;;;6270473;22;20349;-86
2021/06/03 10:40:42;;;;;;;7.63;6.90;;;;;;;;;;6018547;23;20499;-84
2021/06/03 12:04:03;;;;;;;4.00;3.70;;;;;;;;;;6257264;22;20440;-87
2021/06/03 13:08:59;;;;;;;4.53;4.13;;;;;;;;;;6202614;23;20441;-86
2021/06/03 13:15:21;;;;;;;3.77;3.47;;;;;;;;;;6165702;23;20439;-87
2021/06/03 13:18:04;;;;;;;4.43;4.13;;;;;;;;;;6134039;23;20407;-85
2021/06/03 13:20:59;;;;;;;4.43;4.03;;;;;;;;;;6114614;23;20380;-86
2021/06/03 13:24:44;;;;;;;;;;;;;;;;;;;;;
2021/06/03 13:27:46;;;;;;;;;;;;;;;;;;;;;
2021/06/03 13:31:09;;;;;;;4.27;3.97;;;;;;;;;;6074588;23;20381;-86
2021/06/03 14:03:58;;;;;;;3.93;3.60;;;;;;;;;;5830931;24;20460;-84
2021/06/03 14:07:25;;;;;;;4.47;4.17;;;;;;;;;;5832861;24;21008;-86
2021/06/03 14:10:39;;;;;;;;;;;;;;;;;;;;;
2021/06/03 14:16:33;;;;;;;4.50;4.10;;;;;;;;;;5817774;24;20398;-87
2021/06/03 14:19:49;;;;;;;4.80;4.40;;;;;;;;;;5805864;24;20755;-86
2021/06/03 14:23:15;;;;;;;;;;;;;;;;;;;;;
2021/06/03 14:48:48;;;;;;;4.47;4.07;;;;;;;;;;6218344;23;20552;-87
2021/06/03 14:51:52;;;;;;;4.60;4.20;;;;;;;;;;6138352;23;20386;-87
2021/06/03 14:57:54;;;;;;;;;;;;;;;;;;;;;
2021/06/03 15:03:36;;;;;;;3.73;3.43;;;;;;;;;;5997999;23;20386;-86
2021/06/03 15:06:40;;;;;;;4.07;3.80;;;;;;;;;;6094455;23;20378;-87
2021/06/03 15:10:05;;;;;;;;;;;;;;;;;;;;;
2021/06/03 15:16:46;;;;;;;;;;;;;;;;;;;;;
2021/06/03 15:19:52;;;;;;;3.30;3.10;;;;;;;;;;6109942;23;20460;-86
2021/06/03 15:22:47;;;;;;;4.03;3.50;;;;;;;;;;6087610;23;20380;-86
2021/06/03 15:30:14;;;;;;;;;;;;;;;;;;;;;
2021/06/03 15:33:29;;;;;;;3.10;2.90;;;;;;;;;;5983348;23;20466;-88
2021/06/03 15:52:40;;;;;;;3.57;3.37;;;;;;;;;;6235588;23;20528;-87
2021/06/03 15:55:25;;;;;;;4.80;3.53;;;;;;;;;;6213536;22;20424;-87
2021/06/03 15:58:24;;;;;;;3.97;3.57;;;;;;;;;;6216114;23;20418;-88
2021/06/03 16:01:00;;;;;;;3.90;3.60;;;;;;;;;;6173445;23;20379;-89
2021/06/03 17:34:53;;;;;;;4.80;4.50;;;;;;;;;;6078201;23;20553;-85
2021/06/03 17:37:41;;;;;;;6.03;5.40;;;;;;;;;;6077154;23;20390;-84
2021/06/03 17:40:47;;;;;;;;;;;;;;;;;;;;;
2021/06/03 17:48:19;;;;;;;4.70;3.60;;;;;;;;;;5971344;24;20402;-83
2021/06/03 18:22:10;;;;;;;6.90;5.47;;;;;;;;;;6226479;23;20429;-84
2021/06/03 18:25:56;;;;;;;5.57;5.07;;;;;;;;;;6176517;23;20425;-85
2021/06/03 19:10:28;;;;;;;;;;;;;;;;;;;;;
2021/06/03 22:45:43;;;;;;;;;;;;;;;;;;;;;
2021/06/03 23:22:35;;;;;;;;;;;;;;;;;;;;;
2021/06/03 23:26:11;;;;;;;6.33;5.73;;;;;;;;;;6257105;23;20412;-87
